sensor_id;sensor_type;location;lat;lon;timestamp;P1;durP1;ratioP1;P2;durP2;ratioP2
74660;SDS011;63191;39.566;2.654;2023-06-22T00:02:18;27.20;;;8.40;;
74660;SDS011;63191;39.566;2.654;2023-06-22T00:04:44;21.00;;;7.60;;
74660;SDS011;63191;39.566;2.654;2023-06-22T00:07:10;23.10;;;7.60;;
74660;SDS011;63191;39.566;2.654;2023-06-22T00:09:36;22.90;;;7.90;;
74660;SDS011;63191;39.566;2.654;2023-06-22T00:12:02;24.80;;;7.70;;
74660;SDS011;63191;39.566;2.654;2023-06-22T00:14:28;25.30;;;7.40;;
74660;SDS011;63191;39.566;2.654;2023-06-22T00:16:54;20.50;;;6.80;;
74660;SDS011;63191;39.566;2.654;2023-06-22T00:19:25;18.40;;;7.70;;
74660;SDS011;63191;39.566;2.654;2023-06-22T00:21:50;22.30;;;7.40;;
74660;SDS011;63191;39.566;2.654;2023-06-22T00:24:20;24.30;;;7.30;;
74660;SDS011;63191;39.566;2.654;2023-06-22T00:26:48;21.40;;;6.90;;
74660;SDS011;63191;39.566;2.654;2023-06-22T00:29:14;24.70;;;7.20;;
74660;SDS011;63191;39.566;2.654;2023-06-22T00:31:40;21.40;;;6.40;;
74660;SDS011;63191;39.566;2.654;2023-06-22T00:34:06;21.00;;;6.60;;
74660;SDS011;63191;39.566;2.654;2023-06-22T00:36:37;18.40;;;6.70;;
74660;SDS011;63191;39.566;2.654;2023-06-22T00:39:03;19.60;;;6.50;;
74660;SDS011;63191;39.566;2.654;2023-06-22T00:41:29;18.60;;;5.70;;
74660;SDS011;63191;39.566;2.654;2023-06-22T00:43:55;19.70;;;6.50;;
74660;SDS011;63191;39.566;2.654;2023-06-22T00:46:21;19.50;;;6.80;;
74660;SDS011;63191;39.566;2.654;2023-06-22T00:48:48;19.40;;;6.70;;
74660;SDS011;63191;39.566;2.654;2023-06-22T00:51:14;21.80;;;6.20;;
74660;SDS011;63191;39.566;2.654;2023-06-22T00:53:41;18.70;;;6.10;;
74660;SDS011;63191;39.566;2.654;2023-06-22T00:56:08;17.30;;;6.30;;
74660;SDS011;63191;39.566;2.654;2023-06-22T00:58:37;19.60;;;5.90;;
74660;SDS011;63191;39.566;2.654;2023-06-22T01:01:05;19.20;;;6.60;;
74660;SDS011;63191;39.566;2.654;2023-06-22T01:03:30;20.40;;;6.10;;
74660;SDS011;63191;39.566;2.654;2023-06-22T01:06:08;18.80;;;5.60;;
74660;SDS011;63191;39.566;2.654;2023-06-22T01:08:46;21.20;;;6.30;;
74660;SDS011;63191;39.566;2.654;2023-06-22T01:11:26;18.40;;;6.40;;
74660;SDS011;63191;39.566;2.654;2023-06-22T01:14:10;17.00;;;6.10;;
74660;SDS011;63191;39.566;2.654;2023-06-22T01:16:41;20.80;;;6.40;;
74660;SDS011;63191;39.566;2.654;2023-06-22T01:19:35;20.20;;;6.50;;
74660;SDS011;63191;39.566;2.654;2023-06-22T01:22:07;21.90;;;6.80;;
74660;SDS011;63191;39.566;2.654;2023-06-22T01:27:50;20.10;;;6.50;;
74660;SDS011;63191;39.566;2.654;2023-06-22T01:30:23;18.20;;;6.30;;
74660;SDS011;63191;39.566;2.654;2023-06-22T01:32:52;19.30;;;6.50;;
74660;SDS011;63191;39.566;2.654;2023-06-22T01:35:19;22.80;;;6.80;;
74660;SDS011;63191;39.566;2.654;2023-06-22T01:37:45;21.80;;;7.20;;
74660;SDS011;63191;39.566;2.654;2023-06-22T01:40:12;21.10;;;7.10;;
74660;SDS011;63191;39.566;2.654;2023-06-22T01:42:39;19.40;;;6.80;;
74660;SDS011;63191;39.566;2.654;2023-06-22T01:45:05;18.70;;;6.60;;
74660;SDS011;63191;39.566;2.654;2023-06-22T01:47:32;20.50;;;7.10;;
74660;SDS011;63191;39.566;2.654;2023-06-22T01:49:59;20.70;;;7.70;;
74660;SDS011;63191;39.566;2.654;2023-06-22T01:52:25;18.20;;;7.20;;
74660;SDS011;63191;39.566;2.654;2023-06-22T01:54:50;19.00;;;6.50;;
74660;SDS011;63191;39.566;2.654;2023-06-22T01:57:16;26.60;;;8.00;;
74660;SDS011;63191;39.566;2.654;2023-06-22T02:02:20;21.40;;;7.10;;
74660;SDS011;63191;39.566;2.654;2023-06-22T02:04:58;22.00;;;8.10;;
74660;SDS011;63191;39.566;2.654;2023-06-22T02:07:31;21.10;;;7.80;;
74660;SDS011;63191;39.566;2.654;2023-06-22T02:10:00;21.30;;;7.60;;
74660;SDS011;63191;39.566;2.654;2023-06-22T02:12:28;21.70;;;7.40;;
74660;SDS011;63191;39.566;2.654;2023-06-22T02:14:55;25.80;;;7.20;;
74660;SDS011;63191;39.566;2.654;2023-06-22T02:17:21;25.80;;;7.80;;
74660;SDS011;63191;39.566;2.654;2023-06-22T02:19:48;18.00;;;7.30;;
74660;SDS011;63191;39.566;2.654;2023-06-22T02:22:14;21.40;;;6.90;;
74660;SDS011;63191;39.566;2.654;2023-06-22T02:24:40;22.90;;;7.70;;
74660;SDS011;63191;39.566;2.654;2023-06-22T02:27:06;20.00;;;7.50;;
74660;SDS011;63191;39.566;2.654;2023-06-22T02:29:32;21.30;;;7.40;;
74660;SDS011;63191;39.566;2.654;2023-06-22T02:31:58;21.50;;;7.80;;
74660;SDS011;63191;39.566;2.654;2023-06-22T02:34:24;21.00;;;7.00;;
74660;SDS011;63191;39.566;2.654;2023-06-22T02:36:50;21.30;;;7.50;;
74660;SDS011;63191;39.566;2.654;2023-06-22T02:39:20;20.80;;;7.70;;
74660;SDS011;63191;39.566;2.654;2023-06-22T02:41:48;21.60;;;7.80;;
74660;SDS011;63191;39.566;2.654;2023-06-22T02:44:15;22.40;;;8.10;;
74660;SDS011;63191;39.566;2.654;2023-06-22T02:46:41;19.30;;;8.10;;
74660;SDS011;63191;39.566;2.654;2023-06-22T02:49:07;20.90;;;7.40;;
74660;SDS011;63191;39.566;2.654;2023-06-22T02:51:33;22.70;;;7.20;;
74660;SDS011;63191;39.566;2.654;2023-06-22T02:54:00;18.70;;;7.70;;
74660;SDS011;63191;39.566;2.654;2023-06-22T02:56:26;21.30;;;7.40;;
74660;SDS011;63191;39.566;2.654;2023-06-22T02:58:52;18.50;;;7.20;;
74660;SDS011;63191;39.566;2.654;2023-06-22T03:01:18;18.50;;;7.70;;
74660;SDS011;63191;39.566;2.654;2023-06-22T03:03:50;27.40;;;7.60;;
74660;SDS011;63191;39.566;2.654;2023-06-22T03:06:15;21.10;;;7.30;;
74660;SDS011;63191;39.566;2.654;2023-06-22T03:08:41;25.50;;;8.40;;
74660;SDS011;63191;39.566;2.654;2023-06-22T03:11:07;18.50;;;8.20;;
74660;SDS011;63191;39.566;2.654;2023-06-22T03:13:33;23.00;;;8.30;;
74660;SDS011;63191;39.566;2.654;2023-06-22T03:15:59;21.70;;;8.20;;
74660;SDS011;63191;39.566;2.654;2023-06-22T03:18:24;21.70;;;8.00;;
74660;SDS011;63191;39.566;2.654;2023-06-22T03:20:50;21.20;;;7.80;;
74660;SDS011;63191;39.566;2.654;2023-06-22T03:23:16;22.30;;;7.90;;
74660;SDS011;63191;39.566;2.654;2023-06-22T03:25:42;23.20;;;8.30;;
74660;SDS011;63191;39.566;2.654;2023-06-22T03:28:10;23.10;;;8.70;;
74660;SDS011;63191;39.566;2.654;2023-06-22T03:30:36;21.80;;;7.60;;
74660;SDS011;63191;39.566;2.654;2023-06-22T03:33:01;21.10;;;7.40;;
74660;SDS011;63191;39.566;2.654;2023-06-22T03:35:27;19.20;;;7.10;;
74660;SDS011;63191;39.566;2.654;2023-06-22T03:37:53;19.90;;;7.10;;
74660;SDS011;63191;39.566;2.654;2023-06-22T03:40:19;22.00;;;7.50;;
74660;SDS011;63191;39.566;2.654;2023-06-22T03:42:45;20.80;;;7.40;;
74660;SDS011;63191;39.566;2.654;2023-06-22T03:45:11;23.40;;;8.30;;
74660;SDS011;63191;39.566;2.654;2023-06-22T03:47:37;19.10;;;7.80;;
74660;SDS011;63191;39.566;2.654;2023-06-22T03:50:03;23.20;;;8.10;;
74660;SDS011;63191;39.566;2.654;2023-06-22T03:52:31;20.10;;;8.10;;
74660;SDS011;63191;39.566;2.654;2023-06-22T03:54:57;21.10;;;8.00;;
74660;SDS011;63191;39.566;2.654;2023-06-22T03:57:24;18.40;;;7.30;;
74660;SDS011;63191;39.566;2.654;2023-06-22T03:59:50;20.70;;;7.60;;
74660;SDS011;63191;39.566;2.654;2023-06-22T04:02:16;27.10;;;8.20;;
74660;SDS011;63191;39.566;2.654;2023-06-22T04:04:41;19.50;;;7.70;;
74660;SDS011;63191;39.566;2.654;2023-06-22T04:07:07;21.80;;;7.30;;
74660;SDS011;63191;39.566;2.654;2023-06-22T04:09:34;19.90;;;7.90;;
74660;SDS011;63191;39.566;2.654;2023-06-22T04:12:01;22.50;;;8.50;;
74660;SDS011;63191;39.566;2.654;2023-06-22T04:14:27;19.80;;;8.20;;
74660;SDS011;63191;39.566;2.654;2023-06-22T04:16:53;20.70;;;8.30;;
74660;SDS011;63191;39.566;2.654;2023-06-22T04:19:18;17.60;;;8.10;;
74660;SDS011;63191;39.566;2.654;2023-06-22T04:21:44;22.40;;;8.60;;
74660;SDS011;63191;39.566;2.654;2023-06-22T04:24:11;21.60;;;8.60;;
74660;SDS011;63191;39.566;2.654;2023-06-22T04:26:37;23.60;;;8.80;;
74660;SDS011;63191;39.566;2.654;2023-06-22T04:29:03;23.20;;;8.90;;
74660;SDS011;63191;39.566;2.654;2023-06-22T04:31:34;21.90;;;8.60;;
74660;SDS011;63191;39.566;2.654;2023-06-22T04:34:04;24.30;;;9.30;;
74660;SDS011;63191;39.566;2.654;2023-06-22T04:36:40;23.80;;;8.50;;
74660;SDS011;63191;39.566;2.654;2023-06-22T04:39:07;19.60;;;7.80;;
74660;SDS011;63191;39.566;2.654;2023-06-22T04:41:38;20.90;;;7.80;;
74660;SDS011;63191;39.566;2.654;2023-06-22T04:44:17;21.80;;;7.80;;
74660;SDS011;63191;39.566;2.654;2023-06-22T04:46:51;19.20;;;7.30;;
74660;SDS011;63191;39.566;2.654;2023-06-22T04:49:27;22.30;;;7.30;;
74660;SDS011;63191;39.566;2.654;2023-06-22T04:52:01;17.50;;;7.00;;
74660;SDS011;63191;39.566;2.654;2023-06-22T04:54:27;22.50;;;7.10;;
74660;SDS011;63191;39.566;2.654;2023-06-22T04:56:53;17.10;;;6.90;;
74660;SDS011;63191;39.566;2.654;2023-06-22T04:59:23;21.20;;;7.20;;
74660;SDS011;63191;39.566;2.654;2023-06-22T05:01:59;20.20;;;7.60;;
74660;SDS011;63191;39.566;2.654;2023-06-22T05:04:27;20.60;;;6.90;;
74660;SDS011;63191;39.566;2.654;2023-06-22T05:06:54;17.90;;;7.20;;
74660;SDS011;63191;39.566;2.654;2023-06-22T05:09:21;18.20;;;7.10;;
74660;SDS011;63191;39.566;2.654;2023-06-22T05:11:47;20.00;;;6.90;;
74660;SDS011;63191;39.566;2.654;2023-06-22T05:14:13;19.20;;;6.70;;
74660;SDS011;63191;39.566;2.654;2023-06-22T05:16:41;21.40;;;8.30;;
74660;SDS011;63191;39.566;2.654;2023-06-22T05:19:08;22.40;;;8.00;;
74660;SDS011;63191;39.566;2.654;2023-06-22T05:21:34;19.50;;;8.70;;
74660;SDS011;63191;39.566;2.654;2023-06-22T05:24:00;21.30;;;9.80;;
74660;SDS011;63191;39.566;2.654;2023-06-22T05:26:29;21.40;;;9.10;;
74660;SDS011;63191;39.566;2.654;2023-06-22T05:28:56;19.90;;;8.20;;
74660;SDS011;63191;39.566;2.654;2023-06-22T05:31:23;21.90;;;8.40;;
74660;SDS011;63191;39.566;2.654;2023-06-22T05:33:53;22.90;;;9.00;;
74660;SDS011;63191;39.566;2.654;2023-06-22T05:36:19;23.10;;;8.80;;
74660;SDS011;63191;39.566;2.654;2023-06-22T05:38:46;23.00;;;8.70;;
74660;SDS011;63191;39.566;2.654;2023-06-22T05:41:13;21.80;;;8.70;;
74660;SDS011;63191;39.566;2.654;2023-06-22T05:43:42;24.80;;;8.80;;
74660;SDS011;63191;39.566;2.654;2023-06-22T05:46:07;24.00;;;8.90;;
74660;SDS011;63191;39.566;2.654;2023-06-22T05:48:33;22.70;;;9.00;;
74660;SDS011;63191;39.566;2.654;2023-06-22T05:50:59;18.10;;;8.40;;
74660;SDS011;63191;39.566;2.654;2023-06-22T05:53:25;24.60;;;8.30;;
74660;SDS011;63191;39.566;2.654;2023-06-22T05:55:51;19.80;;;8.30;;
74660;SDS011;63191;39.566;2.654;2023-06-22T05:58:17;20.60;;;7.80;;
74660;SDS011;63191;39.566;2.654;2023-06-22T06:00:42;32.20;;;8.20;;
74660;SDS011;63191;39.566;2.654;2023-06-22T06:03:09;25.70;;;9.00;;
74660;SDS011;63191;39.566;2.654;2023-06-22T06:05:36;21.90;;;8.40;;
74660;SDS011;63191;39.566;2.654;2023-06-22T06:08:05;19.90;;;8.10;;
74660;SDS011;63191;39.566;2.654;2023-06-22T06:10:32;17.70;;;8.10;;
74660;SDS011;63191;39.566;2.654;2023-06-22T06:12:59;28.70;;;8.70;;
74660;SDS011;63191;39.566;2.654;2023-06-22T06:15:28;24.80;;;9.00;;
74660;SDS011;63191;39.566;2.654;2023-06-22T06:17:54;21.90;;;8.50;;
74660;SDS011;63191;39.566;2.654;2023-06-22T06:20:22;23.20;;;8.60;;
74660;SDS011;63191;39.566;2.654;2023-06-22T06:22:49;20.20;;;8.00;;
74660;SDS011;63191;39.566;2.654;2023-06-22T06:25:15;21.80;;;8.10;;
74660;SDS011;63191;39.566;2.654;2023-06-22T06:27:43;22.90;;;7.70;;
74660;SDS011;63191;39.566;2.654;2023-06-22T06:30:10;23.50;;;8.30;;
74660;SDS011;63191;39.566;2.654;2023-06-22T06:32:37;21.80;;;8.30;;
74660;SDS011;63191;39.566;2.654;2023-06-22T06:35:08;19.00;;;7.90;;
74660;SDS011;63191;39.566;2.654;2023-06-22T06:37:37;20.00;;;7.20;;
74660;SDS011;63191;39.566;2.654;2023-06-22T06:40:06;18.60;;;6.90;;
74660;SDS011;63191;39.566;2.654;2023-06-22T06:42:39;23.90;;;7.30;;
74660;SDS011;63191;39.566;2.654;2023-06-22T06:45:20;22.20;;;7.80;;
74660;SDS011;63191;39.566;2.654;2023-06-22T06:47:52;22.30;;;7.60;;
74660;SDS011;63191;39.566;2.654;2023-06-22T06:50:18;18.80;;;7.60;;
74660;SDS011;63191;39.566;2.654;2023-06-22T06:52:44;19.30;;;7.90;;
74660;SDS011;63191;39.566;2.654;2023-06-22T06:55:10;19.90;;;7.40;;
74660;SDS011;63191;39.566;2.654;2023-06-22T06:57:38;22.10;;;7.10;;
74660;SDS011;63191;39.566;2.654;2023-06-22T07:00:10;19.10;;;7.40;;
74660;SDS011;63191;39.566;2.654;2023-06-22T07:02:41;20.30;;;7.00;;
74660;SDS011;63191;39.566;2.654;2023-06-22T07:05:09;17.80;;;7.00;;
74660;SDS011;63191;39.566;2.654;2023-06-22T07:07:36;19.90;;;7.00;;
74660;SDS011;63191;39.566;2.654;2023-06-22T07:10:02;22.90;;;7.10;;
74660;SDS011;63191;39.566;2.654;2023-06-22T07:12:29;19.50;;;7.50;;
74660;SDS011;63191;39.566;2.654;2023-06-22T07:15:04;17.40;;;7.00;;
74660;SDS011;63191;39.566;2.654;2023-06-22T07:17:35;12.90;;;5.30;;
74660;SDS011;63191;39.566;2.654;2023-06-22T07:20:02;17.00;;;6.60;;
74660;SDS011;63191;39.566;2.654;2023-06-22T07:22:33;21.70;;;6.60;;
74660;SDS011;63191;39.566;2.654;2023-06-22T07:24:59;18.70;;;6.60;;
74660;SDS011;63191;39.566;2.654;2023-06-22T07:27:26;17.70;;;6.60;;
74660;SDS011;63191;39.566;2.654;2023-06-22T07:29:52;20.60;;;7.00;;
74660;SDS011;63191;39.566;2.654;2023-06-22T07:32:18;18.50;;;6.40;;
74660;SDS011;63191;39.566;2.654;2023-06-22T07:34:43;19.50;;;6.20;;
74660;SDS011;63191;39.566;2.654;2023-06-22T07:37:09;15.50;;;6.60;;
74660;SDS011;63191;39.566;2.654;2023-06-22T07:39:35;16.70;;;6.20;;
74660;SDS011;63191;39.566;2.654;2023-06-22T07:42:03;16.20;;;6.00;;
74660;SDS011;63191;39.566;2.654;2023-06-22T07:44:30;14.40;;;6.50;;
74660;SDS011;63191;39.566;2.654;2023-06-22T07:46:56;17.30;;;6.00;;
74660;SDS011;63191;39.566;2.654;2023-06-22T07:49:21;16.20;;;6.00;;
74660;SDS011;63191;39.566;2.654;2023-06-22T07:51:47;16.60;;;6.20;;
74660;SDS011;63191;39.566;2.654;2023-06-22T07:54:13;17.30;;;5.90;;
74660;SDS011;63191;39.566;2.654;2023-06-22T07:56:41;15.70;;;5.70;;
74660;SDS011;63191;39.566;2.654;2023-06-22T07:59:06;15.50;;;6.10;;
74660;SDS011;63191;39.566;2.654;2023-06-22T08:01:32;17.80;;;6.00;;
74660;SDS011;63191;39.566;2.654;2023-06-22T08:03:58;14.30;;;5.50;;
74660;SDS011;63191;39.566;2.654;2023-06-22T08:06:24;16.50;;;5.50;;
74660;SDS011;63191;39.566;2.654;2023-06-22T08:08:49;14.90;;;5.70;;
74660;SDS011;63191;39.566;2.654;2023-06-22T08:11:18;14.80;;;5.50;;
74660;SDS011;63191;39.566;2.654;2023-06-22T08:13:43;14.00;;;5.20;;
74660;SDS011;63191;39.566;2.654;2023-06-22T08:16:09;14.90;;;5.10;;
74660;SDS011;63191;39.566;2.654;2023-06-22T08:18:35;15.20;;;5.20;;
74660;SDS011;63191;39.566;2.654;2023-06-22T08:21:01;16.20;;;5.10;;
74660;SDS011;63191;39.566;2.654;2023-06-22T08:23:27;21.30;;;6.00;;
74660;SDS011;63191;39.566;2.654;2023-06-22T08:25:52;13.30;;;4.60;;
74660;SDS011;63191;39.566;2.654;2023-06-22T08:28:18;14.00;;;5.50;;
74660;SDS011;63191;39.566;2.654;2023-06-22T08:30:44;16.40;;;5.60;;
74660;SDS011;63191;39.566;2.654;2023-06-22T08:33:09;16.30;;;5.90;;
74660;SDS011;63191;39.566;2.654;2023-06-22T08:35:35;15.80;;;5.10;;
74660;SDS011;63191;39.566;2.654;2023-06-22T08:38:01;17.40;;;5.90;;
74660;SDS011;63191;39.566;2.654;2023-06-22T08:40:47;13.50;;;4.90;;
74660;SDS011;63191;39.566;2.654;2023-06-22T08:43:14;16.10;;;5.50;;
74660;SDS011;63191;39.566;2.654;2023-06-22T08:45:40;15.80;;;5.00;;
74660;SDS011;63191;39.566;2.654;2023-06-22T08:48:06;18.30;;;5.40;;
74660;SDS011;63191;39.566;2.654;2023-06-22T08:50:31;13.90;;;5.00;;
74660;SDS011;63191;39.566;2.654;2023-06-22T08:52:57;13.00;;;5.00;;
74660;SDS011;63191;39.566;2.654;2023-06-22T08:55:23;20.30;;;5.60;;
74660;SDS011;63191;39.566;2.654;2023-06-22T08:57:48;14.90;;;5.10;;
74660;SDS011;63191;39.566;2.654;2023-06-22T09:00:15;16.20;;;5.60;;
74660;SDS011;63191;39.566;2.654;2023-06-22T09:02:46;18.20;;;5.80;;
74660;SDS011;63191;39.566;2.654;2023-06-22T09:05:13;16.80;;;6.10;;
74660;SDS011;63191;39.566;2.654;2023-06-22T09:07:41;15.50;;;5.60;;
74660;SDS011;63191;39.566;2.654;2023-06-22T09:15:42;16.90;;;5.10;;
74660;SDS011;63191;39.566;2.654;2023-06-22T09:18:10;14.00;;;5.00;;
74660;SDS011;63191;39.566;2.654;2023-06-22T09:20:37;15.60;;;5.40;;
74660;SDS011;63191;39.566;2.654;2023-06-22T09:23:05;24.80;;;6.40;;
74660;SDS011;63191;39.566;2.654;2023-06-22T09:31:16;12.10;;;5.30;;
74660;SDS011;63191;39.566;2.654;2023-06-22T09:33:42;17.90;;;5.70;;
74660;SDS011;63191;39.566;2.654;2023-06-22T09:36:09;15.10;;;6.30;;
74660;SDS011;63191;39.566;2.654;2023-06-22T09:38:36;14.90;;;5.40;;
74660;SDS011;63191;39.566;2.654;2023-06-22T09:41:03;14.60;;;5.90;;
74660;SDS011;63191;39.566;2.654;2023-06-22T09:43:32;15.40;;;6.00;;
74660;SDS011;63191;39.566;2.654;2023-06-22T09:46:03;15.80;;;6.00;;
74660;SDS011;63191;39.566;2.654;2023-06-22T09:48:29;16.80;;;6.30;;
74660;SDS011;63191;39.566;2.654;2023-06-22T09:51:14;18.90;;;6.70;;
74660;SDS011;63191;39.566;2.654;2023-06-22T09:53:40;16.90;;;6.60;;
74660;SDS011;63191;39.566;2.654;2023-06-22T09:56:06;16.30;;;6.50;;
74660;SDS011;63191;39.566;2.654;2023-06-22T09:58:32;17.20;;;6.10;;
74660;SDS011;63191;39.566;2.654;2023-06-22T10:00:58;17.10;;;6.20;;
74660;SDS011;63191;39.566;2.654;2023-06-22T10:03:23;16.30;;;6.80;;
74660;SDS011;63191;39.566;2.654;2023-06-22T10:11:22;16.80;;;6.70;;
74660;SDS011;63191;39.566;2.654;2023-06-22T10:13:54;16.20;;;7.40;;
74660;SDS011;63191;39.566;2.654;2023-06-22T10:16:20;17.00;;;7.00;;
74660;SDS011;63191;39.566;2.654;2023-06-22T10:18:46;17.50;;;7.00;;
74660;SDS011;63191;39.566;2.654;2023-06-22T10:24:02;15.20;;;6.70;;
74660;SDS011;63191;39.566;2.654;2023-06-22T10:26:32;14.00;;;6.10;;
74660;SDS011;63191;39.566;2.654;2023-06-22T10:28:59;12.70;;;5.80;;
74660;SDS011;63191;39.566;2.654;2023-06-22T10:31:26;13.20;;;5.70;;
74660;SDS011;63191;39.566;2.654;2023-06-22T10:33:53;12.30;;;5.10;;
74660;SDS011;63191;39.566;2.654;2023-06-22T10:36:21;12.00;;;5.30;;
74660;SDS011;63191;39.566;2.654;2023-06-22T10:38:48;13.10;;;5.70;;
74660;SDS011;63191;39.566;2.654;2023-06-22T10:41:15;11.20;;;5.30;;
74660;SDS011;63191;39.566;2.654;2023-06-22T10:43:41;13.90;;;5.50;;
74660;SDS011;63191;39.566;2.654;2023-06-22T10:46:09;12.50;;;5.50;;
74660;SDS011;63191;39.566;2.654;2023-06-22T10:48:36;14.50;;;5.40;;
74660;SDS011;63191;39.566;2.654;2023-06-22T10:51:02;13.40;;;5.70;;
74660;SDS011;63191;39.566;2.654;2023-06-22T10:53:28;13.90;;;5.40;;
74660;SDS011;63191;39.566;2.654;2023-06-22T10:55:54;12.00;;;4.90;;
74660;SDS011;63191;39.566;2.654;2023-06-22T10:58:20;11.70;;;5.70;;
74660;SDS011;63191;39.566;2.654;2023-06-22T11:00:47;13.30;;;5.20;;
74660;SDS011;63191;39.566;2.654;2023-06-22T11:03:13;14.50;;;5.40;;
74660;SDS011;63191;39.566;2.654;2023-06-22T11:05:40;12.90;;;4.70;;
74660;SDS011;63191;39.566;2.654;2023-06-22T11:08:07;14.70;;;4.90;;
74660;SDS011;63191;39.566;2.654;2023-06-22T11:10:33;11.90;;;4.70;;
74660;SDS011;63191;39.566;2.654;2023-06-22T11:12:59;10.30;;;4.90;;
74660;SDS011;63191;39.566;2.654;2023-06-22T11:15:25;9.20;;;4.40;;
74660;SDS011;63191;39.566;2.654;2023-06-22T11:17:51;9.60;;;4.60;;
74660;SDS011;63191;39.566;2.654;2023-06-22T11:20:17;12.80;;;5.30;;
74660;SDS011;63191;39.566;2.654;2023-06-22T11:22:43;9.90;;;4.70;;
74660;SDS011;63191;39.566;2.654;2023-06-22T11:25:09;9.20;;;4.90;;
74660;SDS011;63191;39.566;2.654;2023-06-22T11:27:37;10.00;;;4.50;;
74660;SDS011;63191;39.566;2.654;2023-06-22T11:30:04;11.20;;;4.30;;
74660;SDS011;63191;39.566;2.654;2023-06-22T11:32:30;11.90;;;5.10;;
74660;SDS011;63191;39.566;2.654;2023-06-22T11:34:57;10.40;;;4.70;;
74660;SDS011;63191;39.566;2.654;2023-06-22T11:37:23;10.40;;;5.10;;
74660;SDS011;63191;39.566;2.654;2023-06-22T11:39:50;9.70;;;4.80;;
74660;SDS011;63191;39.566;2.654;2023-06-22T11:42:17;11.60;;;5.00;;
74660;SDS011;63191;39.566;2.654;2023-06-22T11:44:43;8.70;;;4.90;;
74660;SDS011;63191;39.566;2.654;2023-06-22T11:47:09;9.30;;;4.90;;
74660;SDS011;63191;39.566;2.654;2023-06-22T11:49:35;8.80;;;4.90;;
74660;SDS011;63191;39.566;2.654;2023-06-22T11:52:01;10.20;;;5.70;;
74660;SDS011;63191;39.566;2.654;2023-06-22T11:54:26;13.40;;;6.10;;
74660;SDS011;63191;39.566;2.654;2023-06-22T11:56:52;11.50;;;6.50;;
74660;SDS011;63191;39.566;2.654;2023-06-22T11:59:18;13.40;;;6.50;;
74660;SDS011;63191;39.566;2.654;2023-06-22T12:01:44;11.70;;;6.60;;
74660;SDS011;63191;39.566;2.654;2023-06-22T12:04:09;13.00;;;5.50;;
74660;SDS011;63191;39.566;2.654;2023-06-22T12:06:38;8.90;;;4.90;;
74660;SDS011;63191;39.566;2.654;2023-06-22T12:09:07;9.30;;;4.80;;
74660;SDS011;63191;39.566;2.654;2023-06-22T12:11:33;11.60;;;5.00;;
74660;SDS011;63191;39.566;2.654;2023-06-22T12:13:59;7.90;;;4.80;;
74660;SDS011;63191;39.566;2.654;2023-06-22T12:16:28;9.90;;;5.20;;
74660;SDS011;63191;39.566;2.654;2023-06-22T12:18:54;9.50;;;4.80;;
74660;SDS011;63191;39.566;2.654;2023-06-22T12:21:20;8.20;;;5.10;;
74660;SDS011;63191;39.566;2.654;2023-06-22T12:23:45;8.80;;;5.50;;
74660;SDS011;63191;39.566;2.654;2023-06-22T12:26:11;10.40;;;5.30;;
74660;SDS011;63191;39.566;2.654;2023-06-22T12:28:37;9.70;;;5.40;;
74660;SDS011;63191;39.566;2.654;2023-06-22T12:31:03;12.90;;;6.70;;
74660;SDS011;63191;39.566;2.654;2023-06-22T12:33:29;14.20;;;7.00;;
74660;SDS011;63191;39.566;2.654;2023-06-22T12:36:11;14.40;;;7.20;;
74660;SDS011;63191;39.566;2.654;2023-06-22T12:38:37;13.40;;;6.90;;
74660;SDS011;63191;39.566;2.654;2023-06-22T12:41:02;13.60;;;6.60;;
74660;SDS011;63191;39.566;2.654;2023-06-22T12:43:28;12.50;;;6.40;;
74660;SDS011;63191;39.566;2.654;2023-06-22T12:45:54;13.90;;;6.50;;
74660;SDS011;63191;39.566;2.654;2023-06-22T12:48:21;16.40;;;6.60;;
74660;SDS011;63191;39.566;2.654;2023-06-22T12:50:48;13.10;;;6.30;;
74660;SDS011;63191;39.566;2.654;2023-06-22T12:53:13;13.20;;;5.90;;
74660;SDS011;63191;39.566;2.654;2023-06-22T12:55:39;11.00;;;6.30;;
74660;SDS011;63191;39.566;2.654;2023-06-22T12:58:05;13.70;;;6.20;;
74660;SDS011;63191;39.566;2.654;2023-06-22T13:00:30;12.80;;;5.90;;
74660;SDS011;63191;39.566;2.654;2023-06-22T13:02:56;13.30;;;6.40;;
74660;SDS011;63191;39.566;2.654;2023-06-22T13:05:22;10.10;;;4.80;;
74660;SDS011;63191;39.566;2.654;2023-06-22T13:07:48;15.90;;;5.80;;
74660;SDS011;63191;39.566;2.654;2023-06-22T13:10:14;14.60;;;6.30;;
74660;SDS011;63191;39.566;2.654;2023-06-22T13:12:39;13.10;;;5.60;;
74660;SDS011;63191;39.566;2.654;2023-06-22T13:15:06;14.40;;;6.10;;
74660;SDS011;63191;39.566;2.654;2023-06-22T13:17:32;15.70;;;6.30;;
74660;SDS011;63191;39.566;2.654;2023-06-22T13:19:58;13.20;;;5.10;;
74660;SDS011;63191;39.566;2.654;2023-06-22T13:22:34;12.80;;;5.10;;
74660;SDS011;63191;39.566;2.654;2023-06-22T13:25:09;14.70;;;5.80;;
74660;SDS011;63191;39.566;2.654;2023-06-22T13:27:39;11.60;;;5.40;;
74660;SDS011;63191;39.566;2.654;2023-06-22T13:30:06;13.00;;;5.60;;
74660;SDS011;63191;39.566;2.654;2023-06-22T13:32:32;12.60;;;5.10;;
74660;SDS011;63191;39.566;2.654;2023-06-22T13:34:58;12.10;;;5.50;;
74660;SDS011;63191;39.566;2.654;2023-06-22T13:37:24;11.60;;;4.80;;
74660;SDS011;63191;39.566;2.654;2023-06-22T13:39:50;10.60;;;4.50;;
74660;SDS011;63191;39.566;2.654;2023-06-22T13:42:16;11.30;;;5.00;;
74660;SDS011;63191;39.566;2.654;2023-06-22T13:44:42;9.60;;;4.60;;
74660;SDS011;63191;39.566;2.654;2023-06-22T13:47:08;12.30;;;4.90;;
74660;SDS011;63191;39.566;2.654;2023-06-22T13:49:34;10.60;;;5.10;;
74660;SDS011;63191;39.566;2.654;2023-06-22T13:51:59;11.40;;;4.50;;
74660;SDS011;63191;39.566;2.654;2023-06-22T13:54:28;10.60;;;4.70;;
74660;SDS011;63191;39.566;2.654;2023-06-22T13:56:54;12.40;;;5.30;;
74660;SDS011;63191;39.566;2.654;2023-06-22T13:59:20;10.30;;;4.60;;
74660;SDS011;63191;39.566;2.654;2023-06-22T14:01:46;11.50;;;4.70;;
74660;SDS011;63191;39.566;2.654;2023-06-22T14:04:14;9.20;;;4.50;;
74660;SDS011;63191;39.566;2.654;2023-06-22T14:06:39;12.20;;;4.60;;
74660;SDS011;63191;39.566;2.654;2023-06-22T14:09:05;11.80;;;4.80;;
74660;SDS011;63191;39.566;2.654;2023-06-22T14:11:32;10.90;;;4.40;;
74660;SDS011;63191;39.566;2.654;2023-06-22T14:13:58;9.20;;;4.40;;
74660;SDS011;63191;39.566;2.654;2023-06-22T14:16:24;9.80;;;4.00;;
74660;SDS011;63191;39.566;2.654;2023-06-22T14:18:49;9.80;;;4.00;;
74660;SDS011;63191;39.566;2.654;2023-06-22T14:21:15;9.10;;;4.00;;
74660;SDS011;63191;39.566;2.654;2023-06-22T14:23:41;9.70;;;4.40;;
74660;SDS011;63191;39.566;2.654;2023-06-22T14:26:06;10.30;;;4.50;;
74660;SDS011;63191;39.566;2.654;2023-06-22T14:28:32;11.00;;;4.60;;
74660;SDS011;63191;39.566;2.654;2023-06-22T14:30:58;9.90;;;4.10;;
74660;SDS011;63191;39.566;2.654;2023-06-22T14:33:24;7.20;;;3.60;;
74660;SDS011;63191;39.566;2.654;2023-06-22T14:35:49;8.70;;;3.80;;
74660;SDS011;63191;39.566;2.654;2023-06-22T14:38:15;9.40;;;4.00;;
74660;SDS011;63191;39.566;2.654;2023-06-22T14:40:40;8.50;;;4.10;;
74660;SDS011;63191;39.566;2.654;2023-06-22T14:43:06;8.40;;;4.30;;
74660;SDS011;63191;39.566;2.654;2023-06-22T14:45:32;9.00;;;3.70;;
74660;SDS011;63191;39.566;2.654;2023-06-22T14:47:58;7.70;;;4.10;;
74660;SDS011;63191;39.566;2.654;2023-06-22T14:50:23;9.90;;;4.60;;
74660;SDS011;63191;39.566;2.654;2023-06-22T14:52:49;9.70;;;4.90;;
74660;SDS011;63191;39.566;2.654;2023-06-22T14:55:15;10.60;;;5.60;;
74660;SDS011;63191;39.566;2.654;2023-06-22T14:57:40;9.80;;;4.90;;
74660;SDS011;63191;39.566;2.654;2023-06-22T15:00:07;9.20;;;4.70;;
74660;SDS011;63191;39.566;2.654;2023-06-22T15:02:33;8.90;;;4.00;;